sensor_id;sensor_type;location;lat;lon;timestamp;P1;durP1;ratioP1;P2;durP2;ratioP2
20365;SDS011;10341;49.894;8.822;2023-03-01T00:04:40;17.13;;;8.18;;
20365;SDS011;10341;49.894;8.822;2023-03-01T00:10:00;17.05;;;8.13;;
20365;SDS011;10341;49.894;8.822;2023-03-01T00:15:19;16.77;;;8.95;;
20365;SDS011;10341;49.894;8.822;2023-03-01T00:20:39;20.05;;;8.73;;
20365;SDS011;10341;49.894;8.822;2023-03-01T00:25:58;15.23;;;7.85;;
20365;SDS011;10341;49.894;8.822;2023-03-01T00:31:19;20.08;;;8.88;;
20365;SDS011;10341;49.894;8.822;2023-03-01T00:36:40;17.08;;;8.27;;
20365;SDS011;10341;49.894;8.822;2023-03-01T00:42:00;15.48;;;8.07;;
20365;SDS011;10341;49.894;8.822;2023-03-01T00:47:19;14.77;;;7.78;;
20365;SDS011;10341;49.894;8.822;2023-03-01T00:52:39;19.52;;;8.70;;
20365;SDS011;10341;49.894;8.822;2023-03-01T00:57:58;18.15;;;8.73;;
20365;SDS011;10341;49.894;8.822;2023-03-01T01:03:18;19.83;;;8.43;;
20365;SDS011;10341;49.894;8.822;2023-03-01T01:08:38;16.33;;;8.20;;
20365;SDS011;10341;49.894;8.822;2023-03-01T01:13:57;17.63;;;8.02;;
20365;SDS011;10341;49.894;8.822;2023-03-01T01:19:17;18.00;;;8.57;;
20365;SDS011;10341;49.894;8.822;2023-03-01T01:24:36;18.92;;;8.30;;
20365;SDS011;10341;49.894;8.822;2023-03-01T01:29:56;17.88;;;8.13;;
20365;SDS011;10341;49.894;8.822;2023-03-01T01:35:16;16.67;;;7.82;;
20365;SDS011;10341;49.894;8.822;2023-03-01T01:40:37;17.92;;;8.25;;
20365;SDS011;10341;49.894;8.822;2023-03-01T01:46:48;15.68;;;7.57;;
20365;SDS011;10341;49.894;8.822;2023-03-01T01:51:49;16.08;;;8.35;;
20365;SDS011;10341;49.894;8.822;2023-03-01T01:57:15;18.85;;;8.07;;
20365;SDS011;10341;49.894;8.822;2023-03-01T02:02:38;17.50;;;8.23;;
20365;SDS011;10341;49.894;8.822;2023-03-01T02:07:59;17.73;;;8.60;;
20365;SDS011;10341;49.894;8.822;2023-03-01T02:13:19;18.85;;;8.80;;
20365;SDS011;10341;49.894;8.822;2023-03-01T02:18:39;17.60;;;8.27;;
20365;SDS011;10341;49.894;8.822;2023-03-01T02:24:01;14.77;;;7.72;;
20365;SDS011;10341;49.894;8.822;2023-03-01T02:29:54;17.95;;;8.50;;
20365;SDS011;10341;49.894;8.822;2023-03-01T02:40:34;17.30;;;8.40;;
20365;SDS011;10341;49.894;8.822;2023-03-01T02:45:57;14.32;;;6.80;;
20365;SDS011;10341;49.894;8.822;2023-03-01T02:56:50;14.85;;;7.22;;
20365;SDS011;10341;49.894;8.822;2023-03-01T03:02:19;14.40;;;7.55;;
20365;SDS011;10341;49.894;8.822;2023-03-01T03:07:58;19.77;;;9.43;;
20365;SDS011;10341;49.894;8.822;2023-03-01T03:13:19;18.70;;;8.68;;
20365;SDS011;10341;49.894;8.822;2023-03-01T03:18:40;18.80;;;8.27;;
20365;SDS011;10341;49.894;8.822;2023-03-01T03:24:00;19.27;;;8.95;;
20365;SDS011;10341;49.894;8.822;2023-03-01T03:29:20;19.33;;;9.23;;
20365;SDS011;10341;49.894;8.822;2023-03-01T03:39:58;17.90;;;8.90;;
20365;SDS011;10341;49.894;8.822;2023-03-01T03:45:18;18.83;;;8.90;;
20365;SDS011;10341;49.894;8.822;2023-03-01T03:50:38;19.58;;;9.32;;
20365;SDS011;10341;49.894;8.822;2023-03-01T03:55:58;18.05;;;8.82;;
20365;SDS011;10341;49.894;8.822;2023-03-01T04:01:18;18.13;;;9.07;;
20365;SDS011;10341;49.894;8.822;2023-03-01T04:06:37;19.33;;;9.20;;
20365;SDS011;10341;49.894;8.822;2023-03-01T04:11:56;20.55;;;9.40;;
20365;SDS011;10341;49.894;8.822;2023-03-01T04:17:16;19.70;;;9.18;;
20365;SDS011;10341;49.894;8.822;2023-03-01T04:22:35;19.42;;;9.80;;
20365;SDS011;10341;49.894;8.822;2023-03-01T04:27:55;21.40;;;10.80;;
20365;SDS011;10341;49.894;8.822;2023-03-01T04:33:14;19.30;;;9.02;;
20365;SDS011;10341;49.894;8.822;2023-03-01T04:38:35;17.92;;;8.65;;
20365;SDS011;10341;49.894;8.822;2023-03-01T04:43:55;20.77;;;9.48;;
20365;SDS011;10341;49.894;8.822;2023-03-01T04:49:15;20.80;;;10.02;;
20365;SDS011;10341;49.894;8.822;2023-03-01T04:54:35;21.73;;;10.48;;
20365;SDS011;10341;49.894;8.822;2023-03-01T04:59:55;23.60;;;10.30;;
20365;SDS011;10341;49.894;8.822;2023-03-01T05:05:15;23.58;;;10.32;;
20365;SDS011;10341;49.894;8.822;2023-03-01T05:15:55;21.65;;;9.73;;
20365;SDS011;10341;49.894;8.822;2023-03-01T05:21:16;23.27;;;11.23;;
20365;SDS011;10341;49.894;8.822;2023-03-01T05:26:36;21.58;;;10.48;;
20365;SDS011;10341;49.894;8.822;2023-03-01T05:31:59;21.42;;;10.80;;
20365;SDS011;10341;49.894;8.822;2023-03-01T05:37:20;22.85;;;9.85;;
20365;SDS011;10341;49.894;8.822;2023-03-01T05:42:40;22.15;;;10.38;;
20365;SDS011;10341;49.894;8.822;2023-03-01T05:48:00;22.63;;;10.02;;
20365;SDS011;10341;49.894;8.822;2023-03-01T05:53:19;20.02;;;10.55;;
20365;SDS011;10341;49.894;8.822;2023-03-01T05:58:42;23.05;;;11.20;;
20365;SDS011;10341;49.894;8.822;2023-03-01T06:04:02;26.67;;;11.90;;
20365;SDS011;10341;49.894;8.822;2023-03-01T06:09:21;31.52;;;13.50;;
20365;SDS011;10341;49.894;8.822;2023-03-01T06:14:41;26.15;;;12.75;;
20365;SDS011;10341;49.894;8.822;2023-03-01T06:20:00;25.95;;;11.73;;
20365;SDS011;10341;49.894;8.822;2023-03-01T06:25:21;27.42;;;12.38;;
20365;SDS011;10341;49.894;8.822;2023-03-01T06:30:41;25.13;;;12.55;;
20365;SDS011;10341;49.894;8.822;2023-03-01T06:36:01;24.13;;;12.68;;
20365;SDS011;10341;49.894;8.822;2023-03-01T06:41:20;25.77;;;11.85;;
20365;SDS011;10341;49.894;8.822;2023-03-01T06:51:59;24.83;;;11.40;;
20365;SDS011;10341;49.894;8.822;2023-03-01T07:02:38;25.15;;;12.73;;
20365;SDS011;10341;49.894;8.822;2023-03-01T07:07:57;30.83;;;12.68;;
20365;SDS011;10341;49.894;8.822;2023-03-01T07:13:17;24.77;;;11.50;;
20365;SDS011;10341;49.894;8.822;2023-03-01T07:18:36;22.50;;;11.65;;
20365;SDS011;10341;49.894;8.822;2023-03-01T07:23:56;19.60;;;10.60;;
20365;SDS011;10341;49.894;8.822;2023-03-01T07:29:15;18.13;;;10.33;;
20365;SDS011;10341;49.894;8.822;2023-03-01T07:34:35;17.67;;;9.73;;
20365;SDS011;10341;49.894;8.822;2023-03-01T07:39:55;20.50;;;10.27;;
20365;SDS011;10341;49.894;8.822;2023-03-01T07:45:15;17.20;;;9.65;;
20365;SDS011;10341;49.894;8.822;2023-03-01T07:50:34;18.15;;;10.43;;
20365;SDS011;10341;49.894;8.822;2023-03-01T07:56:04;16.30;;;9.82;;
20365;SDS011;10341;49.894;8.822;2023-03-01T08:01:28;18.52;;;9.65;;
20365;SDS011;10341;49.894;8.822;2023-03-01T08:06:47;17.33;;;9.68;;
20365;SDS011;10341;49.894;8.822;2023-03-01T08:12:07;20.95;;;10.00;;
20365;SDS011;10341;49.894;8.822;2023-03-01T08:17:26;20.85;;;9.98;;
20365;SDS011;10341;49.894;8.822;2023-03-01T08:22:46;14.75;;;9.05;;
20365;SDS011;10341;49.894;8.822;2023-03-01T08:28:05;17.73;;;10.15;;
20365;SDS011;10341;49.894;8.822;2023-03-01T08:33:25;15.90;;;10.20;;
20365;SDS011;10341;49.894;8.822;2023-03-01T08:38:45;16.15;;;9.63;;
20365;SDS011;10341;49.894;8.822;2023-03-01T08:44:04;15.75;;;9.30;;
20365;SDS011;10341;49.894;8.822;2023-03-01T08:49:24;16.00;;;9.70;;
20365;SDS011;10341;49.894;8.822;2023-03-01T08:54:43;14.88;;;9.77;;
20365;SDS011;10341;49.894;8.822;2023-03-01T09:00:03;14.63;;;9.88;;
20365;SDS011;10341;49.894;8.822;2023-03-01T09:05:27;14.63;;;9.90;;
20365;SDS011;10341;49.894;8.822;2023-03-01T09:10:46;12.50;;;9.60;;
20365;SDS011;10341;49.894;8.822;2023-03-01T09:16:06;14.03;;;9.93;;
20365;SDS011;10341;49.894;8.822;2023-03-01T09:21:26;15.30;;;10.50;;
20365;SDS011;10341;49.894;8.822;2023-03-01T09:26:46;15.18;;;10.00;;
20365;SDS011;10341;49.894;8.822;2023-03-01T09:32:06;16.15;;;10.50;;
20365;SDS011;10341;49.894;8.822;2023-03-01T09:37:26;14.02;;;9.77;;
20365;SDS011;10341;49.894;8.822;2023-03-01T09:42:47;15.73;;;11.05;;
20365;SDS011;10341;49.894;8.822;2023-03-01T09:48:17;14.07;;;10.30;;
20365;SDS011;10341;49.894;8.822;2023-03-01T09:53:41;17.33;;;11.32;;
20365;SDS011;10341;49.894;8.822;2023-03-01T09:59:06;15.80;;;11.27;;
20365;SDS011;10341;49.894;8.822;2023-03-01T10:10:07;15.80;;;11.13;;
20365;SDS011;10341;49.894;8.822;2023-03-01T10:15:34;17.17;;;11.50;;
20365;SDS011;10341;49.894;8.822;2023-03-01T10:21:01;15.48;;;10.95;;
20365;SDS011;10341;49.894;8.822;2023-03-01T10:26:32;15.13;;;11.20;;
20365;SDS011;10341;49.894;8.822;2023-03-01T10:31:59;14.55;;;11.00;;
20365;SDS011;10341;49.894;8.822;2023-03-01T10:37:19;17.17;;;11.25;;
20365;SDS011;10341;49.894;8.822;2023-03-01T10:42:48;12.00;;;9.57;;
20365;SDS011;10341;49.894;8.822;2023-03-01T10:53:35;14.02;;;10.13;;
20365;SDS011;10341;49.894;8.822;2023-03-01T10:59:09;13.80;;;10.00;;
20365;SDS011;10341;49.894;8.822;2023-03-01T11:16:03;11.73;;;8.60;;
20365;SDS011;10341;49.894;8.822;2023-03-01T11:21:25;11.35;;;8.25;;
20365;SDS011;10341;49.894;8.822;2023-03-01T11:26:53;12.25;;;9.20;;
20365;SDS011;10341;49.894;8.822;2023-03-01T11:32:13;12.25;;;8.57;;
20365;SDS011;10341;49.894;8.822;2023-03-01T11:43:26;12.10;;;8.65;;
20365;SDS011;10341;49.894;8.822;2023-03-01T11:54:50;12.80;;;8.07;;
20365;SDS011;10341;49.894;8.822;2023-03-01T12:00:24;10.52;;;7.55;;
20365;SDS011;10341;49.894;8.822;2023-03-01T12:11:59;10.38;;;7.40;;
20365;SDS011;10341;49.894;8.822;2023-03-01T12:17:55;9.55;;;7.13;;
20365;SDS011;10341;49.894;8.822;2023-03-01T12:34:32;10.23;;;6.82;;
20365;SDS011;10341;49.894;8.822;2023-03-01T12:50:56;9.88;;;7.28;;
20365;SDS011;10341;49.894;8.822;2023-03-01T12:56:21;10.63;;;6.97;;
20365;SDS011;10341;49.894;8.822;2023-03-01T13:07:44;9.38;;;6.78;;
20365;SDS011;10341;49.894;8.822;2023-03-01T13:13:20;10.02;;;6.70;;
20365;SDS011;10341;49.894;8.822;2023-03-01T13:18:44;9.05;;;7.00;;
20365;SDS011;10341;49.894;8.822;2023-03-01T13:29:49;13.75;;;7.10;;
20365;SDS011;10341;49.894;8.822;2023-03-01T13:46:16;9.65;;;6.72;;
20365;SDS011;10341;49.894;8.822;2023-03-01T13:51:40;8.93;;;6.28;;
20365;SDS011;10341;49.894;8.822;2023-03-01T13:57:00;8.98;;;6.13;;
20365;SDS011;10341;49.894;8.822;2023-03-01T14:02:20;8.02;;;6.13;;
20365;SDS011;10341;49.894;8.822;2023-03-01T14:07:40;9.32;;;6.15;;
20365;SDS011;10341;49.894;8.822;2023-03-01T14:13:13;9.70;;;6.15;;
20365;SDS011;10341;49.894;8.822;2023-03-01T14:19:12;7.28;;;5.57;;
20365;SDS011;10341;49.894;8.822;2023-03-01T14:24:46;9.23;;;6.35;;
20365;SDS011;10341;49.894;8.822;2023-03-01T14:30:14;9.27;;;5.85;;
20365;SDS011;10341;49.894;8.822;2023-03-01T14:35:51;10.98;;;6.80;;
20365;SDS011;10341;49.894;8.822;2023-03-01T14:41:13;10.07;;;6.55;;
20365;SDS011;10341;49.894;8.822;2023-03-01T14:46:38;12.82;;;8.07;;
20365;SDS011;10341;49.894;8.822;2023-03-01T14:52:02;12.05;;;8.18;;
20365;SDS011;10341;49.894;8.822;2023-03-01T14:57:24;12.43;;;8.30;;
20365;SDS011;10341;49.894;8.822;2023-03-01T15:02:46;14.00;;;7.93;;
20365;SDS011;10341;49.894;8.822;2023-03-01T15:08:07;11.80;;;8.13;;
20365;SDS011;10341;49.894;8.822;2023-03-01T15:13:36;12.65;;;8.25;;
20365;SDS011;10341;49.894;8.822;2023-03-01T15:19:03;15.05;;;8.45;;
20365;SDS011;10341;49.894;8.822;2023-03-01T15:24:24;12.45;;;7.82;;
20365;SDS011;10341;49.894;8.822;2023-03-01T15:29:50;14.80;;;8.23;;
20365;SDS011;10341;49.894;8.822;2023-03-01T15:40:59;14.57;;;8.25;;
20365;SDS011;10341;49.894;8.822;2023-03-01T15:46:44;12.27;;;8.02;;
20365;SDS011;10341;49.894;8.822;2023-03-01T15:52:04;14.48;;;7.65;;
20365;SDS011;10341;49.894;8.822;2023-03-01T15:57:30;12.82;;;7.32;;
20365;SDS011;10341;49.894;8.822;2023-03-01T16:02:50;12.40;;;7.88;;
20365;SDS011;10341;49.894;8.822;2023-03-01T16:08:10;14.43;;;7.90;;
20365;SDS011;10341;49.894;8.822;2023-03-01T16:13:29;16.90;;;8.95;;
20365;SDS011;10341;49.894;8.822;2023-03-01T16:18:50;16.45;;;7.95;;
20365;SDS011;10341;49.894;8.822;2023-03-01T16:29:29;14.52;;;8.20;;
20365;SDS011;10341;49.894;8.822;2023-03-01T16:34:49;16.63;;;8.75;;
20365;SDS011;10341;49.894;8.822;2023-03-01T16:40:19;14.23;;;8.52;;
20365;SDS011;10341;49.894;8.822;2023-03-01T16:45:44;15.32;;;8.85;;
20365;SDS011;10341;49.894;8.822;2023-03-01T16:51:05;18.83;;;9.90;;
20365;SDS011;10341;49.894;8.822;2023-03-01T16:56:25;16.90;;;9.43;;
20365;SDS011;10341;49.894;8.822;2023-03-01T17:01:45;23.15;;;10.15;;
20365;SDS011;10341;49.894;8.822;2023-03-01T17:07:06;20.52;;;9.93;;
20365;SDS011;10341;49.894;8.822;2023-03-01T17:12:25;15.73;;;9.63;;
20365;SDS011;10341;49.894;8.822;2023-03-01T17:17:46;17.40;;;9.50;;
20365;SDS011;10341;49.894;8.822;2023-03-01T17:23:09;20.65;;;9.68;;
20365;SDS011;10341;49.894;8.822;2023-03-01T17:28:29;19.75;;;10.77;;
20365;SDS011;10341;49.894;8.822;2023-03-01T17:33:50;21.80;;;10.55;;
20365;SDS011;10341;49.894;8.822;2023-03-01T17:39:10;18.80;;;10.13;;
20365;SDS011;10341;49.894;8.822;2023-03-01T17:44:30;20.75;;;10.77;;
20365;SDS011;10341;49.894;8.822;2023-03-01T17:49:51;20.58;;;9.95;;
20365;SDS011;10341;49.894;8.822;2023-03-01T17:55:11;17.92;;;9.45;;
20365;SDS011;10341;49.894;8.822;2023-03-01T18:00:30;19.33;;;9.80;;
20365;SDS011;10341;49.894;8.822;2023-03-01T18:05:50;20.42;;;9.57;;
20365;SDS011;10341;49.894;8.822;2023-03-01T18:11:13;16.58;;;10.13;;
20365;SDS011;10341;49.894;8.822;2023-03-01T18:16:33;19.42;;;9.68;;
20365;SDS011;10341;49.894;8.822;2023-03-01T18:21:52;19.77;;;10.77;;
20365;SDS011;10341;49.894;8.822;2023-03-01T18:27:12;22.42;;;10.90;;
20365;SDS011;10341;49.894;8.822;2023-03-01T18:32:32;17.50;;;9.75;;
20365;SDS011;10341;49.894;8.822;2023-03-01T18:37:51;16.63;;;8.98;;
20365;SDS011;10341;49.894;8.822;2023-03-01T18:43:11;19.27;;;9.70;;
20365;SDS011;10341;49.894;8.822;2023-03-01T18:48:30;17.10;;;9.45;;
20365;SDS011;10341;49.894;8.822;2023-03-01T18:53:50;20.23;;;10.15;;
20365;SDS011;10341;49.894;8.822;2023-03-01T18:59:10;18.67;;;9.40;;
20365;SDS011;10341;49.894;8.822;2023-03-01T19:04:30;19.83;;;9.40;;
20365;SDS011;10341;49.894;8.822;2023-03-01T19:09:50;20.67;;;9.80;;
20365;SDS011;10341;49.894;8.822;2023-03-01T19:15:09;16.60;;;8.98;;
20365;SDS011;10341;49.894;8.822;2023-03-01T19:20:29;19.90;;;9.48;;
20365;SDS011;10341;49.894;8.822;2023-03-01T19:25:49;20.30;;;10.27;;
20365;SDS011;10341;49.894;8.822;2023-03-01T19:31:09;20.10;;;9.90;;
20365;SDS011;10341;49.894;8.822;2023-03-01T19:36:31;15.63;;;8.80;;
20365;SDS011;10341;49.894;8.822;2023-03-01T19:47:10;18.98;;;9.13;;
20365;SDS011;10341;49.894;8.822;2023-03-01T19:52:30;18.90;;;9.07;;
20365;SDS011;10341;49.894;8.822;2023-03-01T19:57:50;18.95;;;9.18;;
20365;SDS011;10341;49.894;8.822;2023-03-01T20:03:09;19.70;;;8.50;;
20365;SDS011;10341;49.894;8.822;2023-03-01T20:08:29;21.17;;;9.77;;
20365;SDS011;10341;49.894;8.822;2023-03-01T20:13:49;20.02;;;8.90;;
20365;SDS011;10341;49.894;8.822;2023-03-01T20:19:09;20.50;;;9.45;;
20365;SDS011;10341;49.894;8.822;2023-03-01T20:24:29;17.98;;;8.98;;
20365;SDS011;10341;49.894;8.822;2023-03-01T20:29:52;20.23;;;8.98;;
20365;SDS011;10341;49.894;8.822;2023-03-01T20:35:11;21.42;;;9.73;;
20365;SDS011;10341;49.894;8.822;2023-03-01T20:40:31;20.88;;;9.38;;
20365;SDS011;10341;49.894;8.822;2023-03-01T20:51:11;19.40;;;9.35;;
20365;SDS011;10341;49.894;8.822;2023-03-01T20:56:31;16.38;;;8.75;;
20365;SDS011;10341;49.894;8.822;2023-03-01T21:01:54;20.00;;;9.65;;
20365;SDS011;10341;49.894;8.822;2023-03-01T21:07:13;20.23;;;9.93;;
20365;SDS011;10341;49.894;8.822;2023-03-01T21:12:33;17.88;;;8.75;;
20365;SDS011;10341;49.894;8.822;2023-03-01T21:17:52;19.30;;;9.88;;
20365;SDS011;10341;49.894;8.822;2023-03-01T21:23:11;19.08;;;9.48;;
20365;SDS011;10341;49.894;8.822;2023-03-01T21:33:52;19.23;;;9.25;;
20365;SDS011;10341;49.894;8.822;2023-03-01T21:39:13;23.92;;;10.80;;
20365;SDS011;10341;49.894;8.822;2023-03-01T21:44:32;23.98;;;10.63;;
20365;SDS011;10341;49.894;8.822;2023-03-01T21:55:11;19.30;;;9.85;;
20365;SDS011;10341;49.894;8.822;2023-03-01T22:00:31;20.20;;;9.73;;
20365;SDS011;10341;49.894;8.822;2023-03-01T22:05:54;19.63;;;9.90;;
20365;SDS011;10341;49.894;8.822;2023-03-01T22:11:16;20.45;;;10.73;;
20365;SDS011;10341;49.894;8.822;2023-03-01T22:16:37;19.73;;;9.82;;
20365;SDS011;10341;49.894;8.822;2023-03-01T22:21:59;26.45;;;11.20;;
20365;SDS011;10341;49.894;8.822;2023-03-01T22:27:19;23.63;;;10.85;;
20365;SDS011;10341;49.894;8.822;2023-03-01T22:37:58;22.90;;;10.10;;
20365;SDS011;10341;49.894;8.822;2023-03-01T22:48:37;22.15;;;10.43;;
20365;SDS011;10341;49.894;8.822;2023-03-01T22:59:16;22.98;;;10.45;;
20365;SDS011;10341;49.894;8.822;2023-03-01T23:04:36;24.70;;;10.45;;
20365;SDS011;10341;49.894;8.822;2023-03-01T23:15:19;20.42;;;10.43;;
20365;SDS011;10341;49.894;8.822;2023-03-01T23:20:39;21.85;;;9.98;;
20365;SDS011;10341;49.894;8.822;2023-03-01T23:25:58;19.77;;;10.23;;
20365;SDS011;10341;49.894;8.822;2023-03-01T23:36:37;19.65;;;10.52;;
20365;SDS011;10341;49.894;8.822;2023-03-01T23:42:02;21.15;;;9.50;;
20365;SDS011;10341;49.894;8.822;2023-03-01T23:47:22;22.17;;;10.07;;
20365;SDS011;10341;49.894;8.822;2023-03-01T23:58:01;21.70;;;10.23;;
